»·PEaware :: N716TH L52-L88

N716TH :: L52-L88

FLIGHT INFORMATION

Flight Status: Arrived
Operator: Privately registered:
United States
More flights under this callsign
Pilot: Danny R. (17997)
Aircraft: CESSNA 172 SKYHAWK
(C172)
More flights by this aircraft type
Origin: L52 Oceano Co
United States
Destination: L88 New Cuyama
United States
More flights between these airports :: More routes between these airports
Route: L52 WYNNR L88
File this flight plan on PilotEdge
Remarks: CAT I Student pilot
Altitude:
(Current/Filed)
5,500ft
Speed:
(Current/Filed)
100kts
Departed: 22-Jan-18 01:35 PM
Arrived: 22-Jan-18 02:11 PM
Distance/Time
Traveled:
47nm/0:36
Distance/Time
To Go:
Arrived

Flight Plot

Page will automatically refresh every two minutes.


Map Options




Map Legend


Flown Route
Filed Route
Departure Airport
Arrival Airport
Navaid (VOR, NDB)
Fix

Horizontal Profiles

Position Reports

Time Latitude Longitude Heading Altitude Ground
Speed
22-Jan-18 13:04 35.103091 -120.624062 213 18ft 0kts
22-Jan-18 13:05 35.103091 -120.624062 213 18ft 0kts
22-Jan-18 13:06 35.103091 -120.624062 213 18ft 0kts
22-Jan-18 13:07 35.103091 -120.624062 213 18ft 0kts
22-Jan-18 13:08 35.103091 -120.624062 213 18ft 0kts
22-Jan-18 13:09 35.103091 -120.624062 213 18ft 0kts
22-Jan-18 13:10 35.103091 -120.624062 213 18ft 0kts
22-Jan-18 13:11 35.103091 -120.624062 213 18ft 0kts
22-Jan-18 13:12 35.103091 -120.624062 213 18ft 0kts
22-Jan-18 13:13 35.103091 -120.624062 213 18ft 0kts
22-Jan-18 13:14 35.103091 -120.624062 213 18ft 0kts
22-Jan-18 13:15 35.103091 -120.624062 213 18ft 0kts
22-Jan-18 13:16 35.103091 -120.624062 213 18ft 0kts
22-Jan-18 13:17 35.103091 -120.624062 213 18ft 0kts
22-Jan-18 13:18 35.103091 -120.624062 213 18ft 0kts
22-Jan-18 13:19 35.103091 -120.624062 213 18ft 0kts
22-Jan-18 13:20 35.103091 -120.624062 213 18ft 0kts
22-Jan-18 13:21 35.103091 -120.624062 213 18ft 0kts
22-Jan-18 13:22 35.103091 -120.624062 213 18ft 0kts
22-Jan-18 13:23 35.103091 -120.624062 213 18ft 0kts
22-Jan-18 13:24 35.103091 -120.624062 213 18ft 0kts
22-Jan-18 13:25 35.103091 -120.624062 213 18ft 0kts
22-Jan-18 13:26 35.103091 -120.624062 213 18ft 0kts
22-Jan-18 13:27 35.103091 -120.624062 213 18ft 0kts
22-Jan-18 13:28 35.103091 -120.624062 213 18ft 0kts
22-Jan-18 13:29 35.103091 -120.624062 213 18ft 0kts
22-Jan-18 13:30 35.103091 -120.624062 213 18ft 0kts
22-Jan-18 13:31 35.102557 -120.623198 121 18ft 9kts
22-Jan-18 13:32 35.101911 -120.622133 194 18ft 0kts
22-Jan-18 13:33 35.101051 -120.622321 121 18ft 11kts
22-Jan-18 13:34 35.099759 -120.619899 118 18ft 7kts
22-Jan-18 13:35 35.099437 -120.619396 46 18ft 0kts
22-Jan-18 13:36 35.099437 -120.619396 46 18ft 0kts
22-Jan-18 13:37 35.099437 -120.619396 46 18ft 0kts
22-Jan-18 13:38 35.099437 -120.619396 46 18ft 0kts
22-Jan-18 13:39 35.099437 -120.619396 46 18ft 0kts
22-Jan-18 13:40 35.099928 -120.619265 304 18ft 0kts
22-Jan-18 13:41 35.105959 -120.634051 287 430ft 67kts
22-Jan-18 13:42 35.092665 -120.626976 127 1180ft 89kts
22-Jan-18 13:43 35.079224 -120.602445 115 1933ft 86kts
22-Jan-18 13:44 35.072901 -120.574551 56 2602ft 84kts
22-Jan-18 13:45 35.084448 -120.549778 44 3263ft 83kts
22-Jan-18 13:46 35.098104 -120.526325 46 3868ft 88kts
22-Jan-18 13:47 35.106319 -120.495859 76 4394ft 98kts
22-Jan-18 13:48 35.108692 -120.462541 80 4963ft 98kts
22-Jan-18 13:49 35.110381 -120.427972 82 5343ft 111kts
22-Jan-18 13:50 35.111932 -120.388796 82 5478ft 120kts
22-Jan-18 13:51 35.113413 -120.349910 83 5449ft 110kts
22-Jan-18 13:52 35.114729 -120.317214 82 5504ft 105kts
22-Jan-18 13:53 35.116140 -120.281393 83 5504ft 106kts
22-Jan-18 13:54 35.117534 -120.245297 83 5504ft 106kts
22-Jan-18 13:55 35.117414 -120.209268 110 5501ft 108kts
22-Jan-18 13:56 35.105473 -120.174925 112 5488ft 110kts
22-Jan-18 13:57 35.093835 -120.140201 112 5487ft 110kts
22-Jan-18 13:58 35.082230 -120.105412 112 5483ft 111kts
22-Jan-18 13:59 35.070867 -120.071401 112 5566ft 106kts
22-Jan-18 14:00 35.059442 -120.037270 112 5567ft 110kts
22-Jan-18 14:01 35.047828 -120.002596 112 5567ft 110kts
22-Jan-18 14:02 35.036158 -119.967755 112 5563ft 111kts
22-Jan-18 14:03 35.024410 -119.932801 112 5558ft 111kts
22-Jan-18 14:04 35.013304 -119.899760 112 5556ft 111kts
22-Jan-18 14:05 35.001099 -119.865023 112 5553ft 111kts
22-Jan-18 14:06 34.989063 -119.829464 108 5479ft 114kts
22-Jan-18 14:07 34.976888 -119.797238 112 5168ft 103kts
22-Jan-18 14:08 34.971108 -119.764834 87 4670ft 97kts
22-Jan-18 14:09 34.967110 -119.732228 101 4137ft 97kts
22-Jan-18 14:10 34.960884 -119.698778 95 3308ft 97kts
22-Jan-18 14:11 34.952837 -119.669344 98 3090ft 84kts
22-Jan-18 14:12 34.947715 -119.640372 103 3170ft 92kts
22-Jan-18 14:13 34.933288 -119.621012 195 3237ft 85kts
22-Jan-18 14:14 34.919317 -119.633776 286 3204ft 64kts
22-Jan-18 14:15 34.925958 -119.651635 300 3019ft 55kts
22-Jan-18 14:16 34.932637 -119.667734 302 2624ft 48kts
22-Jan-18 14:17 34.938269 -119.681441 294 2215ft 31kts
22-Jan-18 14:18 34.941500 -119.689371 297 2207ft 23kts
22-Jan-18 14:19 34.942638 -119.691268 21 2207ft 0kts
22-Jan-18 14:20 34.942755 -119.690795 143 2207ft 4kts
22-Jan-18 14:21 34.942656 -119.690516 28 2207ft 0kts
22-Jan-18 14:22 34.942656 -119.690516 28 2207ft 0kts
22-Jan-18 14:23 34.942656 -119.690516 28 2207ft 0kts
22-Jan-18 14:24 34.942656 -119.690516 28 2207ft 0kts
22-Jan-18 14:25 34.942669 -119.690439 1 2207ft 2kts
22-Jan-18 14:26 34.942609 -119.690477 24 2207ft 0kts

Navigation Log

Ident Type
Flight plan parsing failed, navigation log unavailable